AirNav   ProFlight Series 2 Aviation Headset
 
 554 users online  

FA96 Oviedo Medical Center Heliport
Oviedo, Florida, USA

GOING TO OVIEDO?


FAA INFORMATION EFFECTIVE 08 OCTOBER 2020

Location

FAA Identifier: FA96
Lat/Long: 28-39-28.9000N 081-13-42.4000W
28-39.481667N 081-13.706667W
28.6580278,-81.2284444
(estimated)
Elevation: 32 ft. / 10 m (estimated)
From city: 1 mile SW of OVIEDO, FL
Time zone: UTC -4 (UTC -5 during Standard Time)
Zip code: 32765

Heliport Operations

Heliport use: Private use. Permission required prior to landing
Activation date: 01/2017
Control tower: no
ARTCC: JACKSONVILLE CENTER
FSS: SAINT PETERSBURG FLIGHT SERVICE STATION
Attendance: 
Wind indicator: lighted
Segmented circle: no
Beacon: white-green-yellow (heliport)

Heliport Communications

WX ASOS at SFB (7 nm N): PHONE 407-321-9384
WX ASOS at ORL (9 nm SW): 127.25 (407-658-6753)
WX ASOS at MCO (14 nm S): PHONE 407-855-5235

Nearby radio navigation aids

VOR radial/distance  VOR name  Freq  Var
ORLr039/8.9ORLANDO VORTAC112.2000E
OMNr189/39.2ORMOND BEACH VORTAC112.6000E

Heliport Services

Runway Information

Helipad H1

Dimensions: 33 x 33 ft. / 10 x 10 m
Surface: concrete, in excellent condition
Runway edge lights: PERI
Traffic pattern: leftleft
Markings: basic, in good condition

Heliport Ownership and Management from official FAA records

Ownership: Privately-owned
Owner: OVIEDO MEDICAL CENTER
8300 RED BUG LAKE RD
OVIEDO, FL 32765
Phone (407) 890-2273
Manager: OVIEDO MEDICAL CENTER
8300 RED BUG LAKE RD
OVIEDO, FL 32765
Phone (407) 890-2077

Additional Remarks

FOR CD CTC ORLANDO APCH AT 407-852-7553.

Instrument Procedures

There are no published instrument procedures at FA96.

Some nearby airports with instrument procedures:

KSFB - Orlando Sanford International Airport (7 nm N)
KORL - Executive Airport (9 nm SW)
KMCO - Orlando International Airport (14 nm S)
X04 - Orlando Apopka Airport (19 nm W)
X21 - Arthur Dunn Air Park (21 nm E)
 
Loc | Ops | Rwys | IFR | FBO | Links
Com | Nav | Svcs | Stats | Notes
Aerial photo
No photo
 
Airport distance calculator
Flying to Oviedo Medical Center Heliport? Find the distance to fly.

From to FA96

Sunrise and sunset
Times for 22-Oct-2020
 Local
(UTC-4)
 Zulu
(UTC)
Morning civil twilight07:0811:08
Sunrise07:3211:32
Sunset18:4722:47
Evening civil twilight19:1123:11

Current date and time
Zulu (UTC)  22-Oct-2020 11:05:21
Local (UTC-4)  22-Oct-2020 07:05:21
 
METAR
KSFB 
7nm N 
221053Z 06004KT 10SM CLR 23/21 A3001 RMK AO2 SLP160 T02330211
KORL 
9nm SW 
221053Z AUTO 05004KT 10SM FEW026 24/22 A3001 RMK AO2 SLP165 T02390222
KMCO 
16nm S 
221053Z 08005KT 10SM FEW023 FEW048 SCT160 23/22 A3001 RMK AO2 RAB33E45 SLP159 P0000 T02330222
TAF
KSFB 
7nm N 
220541Z 2206/2306 06008KT P6SM VCSH SCT035 BKN140 FM220630 07004KT P6SM FEW040 BKN100 FM221500 09009KT P6SM SCT025 BKN150 FM221700 08011KT P6SM VCSH SCT030 BKN250 FM230000 07008KT P6SM SCT025 BKN100
KMCO 
16nm S 
220857Z 2209/2312 07005KT P6SM FEW025 BKN150 FM221500 08009KT P6SM SCT025 BKN150 FM221700 07011KT P6SM VCSH SCT030 BKN100 FM230000 07008KT P6SM SCT025 BKN100
NOTAMs
Click for the latest NOTAMs
NOTAMs are issued by the DoD/FAA and will open in a separate window not controlled by AirNav.

 

 
 

Would you like to see your business listed on this page?

 If your business provides an interesting product or service to pilots, flight crews, aircraft, or users of the Oviedo Medical Center Heliport, you should consider listing it here.  To start the listing process, click on the button below
 
Add a business
 

Other Pages about Oviedo Medical Center Heliport

Update a link
 
Copyright © AirNav, LLC. All rights reserved. Privacy Policy  Contact